Time;durP1;ratioP1;P1;durP2;ratioP2;P2;SDS_P1;SDS_P2;PMS_P1;PMS_P2;Temp;Humidity;BMP_temperature;BMP_pressure;BME280_temperature;BME280_humidity;BME280_pressure;Samples;Min_cycle;Max_cycle;Signal;HPM_P1;HPM_P2
2021/05/24 00:01:51;;;;;;;17.95;12.02;;;;;;;;;;4990185;28;20118;-68
2021/05/24 00:04:18;;;;;;;18.52;11.35;;;;;;;;;;4971191;28;20037;-68
2021/05/24 00:06:45;;;;;;;11.70;9.68;;;;;;;;;;4987884;28;20030;-69
2021/05/24 00:09:12;;;;;;;12.80;7.40;;;;;;;;;;4990548;28;20071;-69
2021/05/24 00:11:39;;;;;;;13.10;9.43;;;;;;;;;;4969161;28;20042;-68
2021/05/24 00:14:08;;;;;;;14.63;9.55;;;;;;;;;;4988169;28;20022;-69
2021/05/24 00:16:35;;;;;;;15.05;10.07;;;;;;;;;;4987291;28;20050;-68
2021/05/24 00:19:02;;;;;;;12.90;9.63;;;;;;;;;;4988871;28;20050;-69
2021/05/24 00:21:29;;;;;;;13.88;9.35;;;;;;;;;;4971727;28;20133;-68
2021/05/24 00:23:57;;;;;;;12.15;9.70;;;;;;;;;;4990820;28;20034;-68
2021/05/24 00:26:24;;;;;;;15.07;9.70;;;;;;;;;;4989772;28;20097;-69
2021/05/24 00:28:52;;;;;;;17.05;11.35;;;;;;;;;;4987001;28;20033;-68
2021/05/24 00:31:19;;;;;;;15.75;10.60;;;;;;;;;;4988835;28;20054;-68
2021/05/24 00:33:46;;;;;;;18.63;11.23;;;;;;;;;;4985935;28;20023;-68
2021/05/24 00:36:14;;;;;;;14.07;9.25;;;;;;;;;;4991141;28;20066;-68
2021/05/24 00:38:41;;;;;;;17.63;11.27;;;;;;;;;;4986275;28;20475;-68
2021/05/24 00:41:08;;;;;;;16.27;11.35;;;;;;;;;;4991777;28;20038;-68
2021/05/24 00:43:35;;;;;;;18.48;12.52;;;;;;;;;;4990157;28;20390;-68
2021/05/24 00:46:02;;;;;;;16.38;11.68;;;;;;;;;;4992842;28;20018;-69
2021/05/24 00:48:29;;;;;;;19.73;12.63;;;;;;;;;;4990889;28;20038;-68
2021/05/24 00:50:56;;;;;;;22.17;12.70;;;;;;;;;;4992705;28;20042;-68
2021/05/24 00:53:24;;;;;;;15.80;12.40;;;;;;;;;;4975857;28;20043;-68
2021/05/24 00:55:51;;;;;;;12.20;7.72;;;;;;;;;;4975790;28;20503;-68
2021/05/24 00:58:18;;;;;;;8.80;4.20;;;;;;;;;;4993905;28;20027;-68
2021/05/24 01:00:46;;;;;;;5.78;2.28;;;;;;;;;;4990524;28;20022;-69
2021/05/24 01:03:13;;;;;;;11.10;3.88;;;;;;;;;;4991311;28;20030;-69
2021/05/24 01:05:41;;;;;;;12.05;4.68;;;;;;;;;;4993182;28;20057;-69
2021/05/24 01:08:10;;;;;;;11.55;4.85;;;;;;;;;;4994105;28;20033;-69
2021/05/24 01:10:37;;;;;;;10.57;2.88;;;;;;;;;;4994337;28;20034;-70
2021/05/24 01:13:06;;;;;;;8.43;2.70;;;;;;;;;;4993511;28;20061;-70
2021/05/24 01:15:34;;;;;;;7.95;1.60;;;;;;;;;;4996349;28;20030;-69
2021/05/24 01:18:01;;;;;;;12.80;2.08;;;;;;;;;;4994744;28;20022;-69
2021/05/24 01:20:29;;;;;;;7.18;1.15;;;;;;;;;;4992305;28;20030;-69
2021/05/24 01:25:32;;;;;;;4.68;0.98;;;;;;;;;;4990803;28;20049;-70
2021/05/24 01:27:59;;;;;;;5.78;1.23;;;;;;;;;;4988292;28;20053;-70
2021/05/24 01:30:26;;;;;;;5.28;1.25;;;;;;;;;;4971650;28;20026;-70
2021/05/24 01:32:53;;;;;;;4.35;1.52;;;;;;;;;;4986876;28;20034;-70
2021/05/24 01:35:20;;;;;;;4.80;1.48;;;;;;;;;;4983564;28;20029;-69
2021/05/24 01:37:47;;;;;;;6.10;3.42;;;;;;;;;;4987647;28;20018;-70
2021/05/24 01:40:15;;;;;;;8.40;3.95;;;;;;;;;;4983982;28;20026;-70
2021/05/24 01:42:42;;;;;;;8.90;4.03;;;;;;;;;;4989779;28;20023;-70
2021/05/24 01:45:10;;;;;;;7.35;3.17;;;;;;;;;;4989809;28;20030;-70
2021/05/24 01:47:37;;;;;;;11.13;3.75;;;;;;;;;;4987239;28;20038;-70
2021/05/24 01:50:05;;;;;;;10.25;3.83;;;;;;;;;;4969839;28;20031;-69
2021/05/24 01:52:32;;;;;;;5.57;3.47;;;;;;;;;;4984333;28;21061;-69
2021/05/24 01:54:59;;;;;;;8.05;2.92;;;;;;;;;;4992327;28;20054;-69
2021/05/24 01:57:26;;;;;;;6.32;1.90;;;;;;;;;;4990123;28;20029;-70
2021/05/24 01:59:53;;;;;;;2.83;0.70;;;;;;;;;;4995029;28;20105;-69
2021/05/24 02:02:20;;;;;;;6.13;1.38;;;;;;;;;;4988590;28;20023;-70
2021/05/24 02:04:47;;;;;;;1.52;0.43;;;;;;;;;;4982395;28;20022;-69
2021/05/24 02:07:15;;;;;;;3.17;0.85;;;;;;;;;;4990381;28;20038;-69
2021/05/24 02:09:42;;;;;;;2.08;0.93;;;;;;;;;;4993853;28;20022;-69
2021/05/24 02:12:09;;;;;;;2.65;0.77;;;;;;;;;;4987962;28;20039;-70
2021/05/24 02:14:36;;;;;;;1.27;0.30;;;;;;;;;;4986656;28;20030;-69
2021/05/24 02:17:03;;;;;;;3.53;0.50;;;;;;;;;;4983234;28;20030;-70
2021/05/24 02:19:30;;;;;;;2.22;0.30;;;;;;;;;;4986701;28;20052;-69
2021/05/24 02:21:57;;;;;;;1.20;0.30;;;;;;;;;;4970993;28;20388;-69
2021/05/24 02:24:24;;;;;;;0.57;0.20;;;;;;;;;;4989205;28;20029;-71
2021/05/24 02:26:51;;;;;;;1.95;0.20;;;;;;;;;;4993845;28;20037;-70
2021/05/24 02:29:19;;;;;;;3.83;0.65;;;;;;;;;;4992387;28;20018;-70
2021/05/24 02:31:46;;;;;;;1.40;0.52;;;;;;;;;;4987593;28;20073;-70
2021/05/24 02:34:13;;;;;;;5.72;0.60;;;;;;;;;;4990242;28;20041;-70
2021/05/24 02:36:40;;;;;;;4.50;0.80;;;;;;;;;;4988765;28;20038;-70
2021/05/24 02:39:09;;;;;;;2.60;0.70;;;;;;;;;;4992364;28;20387;-70
2021/05/24 02:41:37;;;;;;;2.60;0.45;;;;;;;;;;4994137;28;20030;-70
2021/05/24 02:44:05;;;;;;;3.45;0.60;;;;;;;;;;4990100;28;20030;-70
2021/05/24 02:46:33;;;;;;;4.72;0.70;;;;;;;;;;4992251;28;20054;-70
2021/05/24 02:49:00;;;;;;;5.53;0.82;;;;;;;;;;4992816;28;20089;-70
2021/05/24 02:51:27;;;;;;;4.95;0.60;;;;;;;;;;4986358;28;20399;-70
2021/05/24 02:53:54;;;;;;;2.65;0.70;;;;;;;;;;4989480;28;20022;-70
2021/05/24 02:56:22;;;;;;;2.90;0.63;;;;;;;;;;4992123;28;20026;-70
2021/05/24 02:58:49;;;;;;;3.55;0.80;;;;;;;;;;4989938;28;20109;-68
2021/05/24 03:01:16;;;;;;;2.75;0.40;;;;;;;;;;4988021;28;20026;-69
2021/05/24 03:03:43;;;;;;;2.75;0.30;;;;;;;;;;4987693;28;20375;-69
2021/05/24 03:06:10;;;;;;;3.38;0.25;;;;;;;;;;4971008;28;20097;-70
2021/05/24 03:08:37;;;;;;;1.65;0.30;;;;;;;;;;4987733;28;20113;-70
2021/05/24 03:11:04;;;;;;;2.58;0.35;;;;;;;;;;4988908;28;20035;-69
2021/05/24 03:13:32;;;;;;;4.20;0.70;;;;;;;;;;4999342;28;20033;-69
2021/05/24 03:15:59;;;;;;;4.47;0.40;;;;;;;;;;4985745;28;20023;-69
2021/05/24 03:18:26;;;;;;;2.10;0.40;;;;;;;;;;4991042;28;20022;-69
2021/05/24 03:20:53;;;;;;;6.32;0.50;;;;;;;;;;4992082;28;20084;-69
2021/05/24 03:23:20;;;;;;;3.60;0.47;;;;;;;;;;4994079;28;20382;-69
2021/05/24 03:25:47;;;;;;;1.80;0.20;;;;;;;;;;4990624;28;20031;-69
2021/05/24 03:28:14;;;;;;;1.73;0.30;;;;;;;;;;4994227;28;20029;-69
2021/05/24 03:30:41;;;;;;;2.55;0.45;;;;;;;;;;4989002;28;20030;-69
2021/05/24 03:33:09;;;;;;;2.17;0.45;;;;;;;;;;4989995;28;20076;-69
2021/05/24 03:35:36;;;;;;;2.50;0.55;;;;;;;;;;4993096;28;20038;-70
2021/05/24 03:38:03;;;;;;;0.98;0.20;;;;;;;;;;5006685;28;20018;-70
2021/05/24 03:40:30;;;;;;;2.78;0.30;;;;;;;;;;5010243;28;20080;-69
2021/05/24 03:42:57;;;;;;;2.78;0.22;;;;;;;;;;4970336;28;20031;-69
2021/05/24 03:45:30;;;;;;;4.25;0.50;;;;;;;;;;4983149;28;20042;-69
2021/05/24 03:47:57;;;;;;;2.80;0.50;;;;;;;;;;4986043;28;20080;-69
2021/05/24 03:50:25;;;;;;;2.20;1.08;;;;;;;;;;4988971;28;20030;-70
2021/05/24 03:52:53;;;;;;;5.13;1.10;;;;;;;;;;4987053;28;20039;-69
2021/05/24 03:55:20;;;;;;;3.22;1.05;;;;;;;;;;4983874;28;20406;-69
2021/05/24 03:57:49;;;;;;;4.45;1.05;;;;;;;;;;4984429;28;20029;-69
2021/05/24 04:00:17;;;;;;;2.00;0.50;;;;;;;;;;4990779;28;20030;-69
2021/05/24 04:02:44;;;;;;;3.28;0.50;;;;;;;;;;4997614;28;20022;-69
2021/05/24 04:05:21;;;;;;;2.97;0.50;;;;;;;;;;4990680;28;20399;-70
2021/05/24 04:07:52;;;;;;;1.98;0.60;;;;;;;;;;4999930;28;20367;-70
2021/05/24 04:10:21;;;;;;;2.47;0.60;;;;;;;;;;4992586;28;20034;-70
2021/05/24 04:12:48;;;;;;;3.28;0.73;;;;;;;;;;4984399;28;20026;-69
2021/05/24 04:15:16;;;;;;;5.25;1.10;;;;;;;;;;4984338;28;20033;-69
2021/05/24 04:17:44;;;;;;;3.80;0.77;;;;;;;;;;4982050;28;20022;-69
2021/05/24 04:20:12;;;;;;;3.95;1.25;;;;;;;;;;4983548;28;20393;-70
2021/05/24 04:22:40;;;;;;;4.80;0.70;;;;;;;;;;4988076;28;20027;-70
2021/05/24 04:25:07;;;;;;;4.82;0.95;;;;;;;;;;4993510;28;20123;-69
2021/05/24 04:27:35;;;;;;;3.80;1.17;;;;;;;;;;4994101;28;20054;-70
2021/05/24 04:30:02;;;;;;;3.00;0.50;;;;;;;;;;4994903;28;20026;-70
2021/05/24 04:32:29;;;;;;;2.80;0.63;;;;;;;;;;4993458;28;20113;-69
2021/05/24 04:34:56;;;;;;;4.82;0.70;;;;;;;;;;4981323;28;20034;-69
2021/05/24 04:37:23;;;;;;;2.35;0.50;;;;;;;;;;4995178;28;20495;-70
2021/05/24 04:39:50;;;;;;;3.28;0.60;;;;;;;;;;4987337;28;20026;-70
2021/05/24 04:42:19;;;;;;;1.65;0.50;;;;;;;;;;4994644;28;20050;-69
2021/05/24 04:44:47;;;;;;;2.50;0.52;;;;;;;;;;4991774;28;20077;-69
2021/05/24 04:47:14;;;;;;;3.10;0.73;;;;;;;;;;4989978;28;20037;-70
2021/05/24 04:49:41;;;;;;;3.95;0.32;;;;;;;;;;4994738;28;20442;-70
2021/05/24 04:52:08;;;;;;;4.18;0.40;;;;;;;;;;4988115;28;20058;-71
2021/05/24 04:54:35;;;;;;;2.03;0.40;;;;;;;;;;4992660;28;20065;-70
2021/05/24 04:57:02;;;;;;;2.70;0.22;;;;;;;;;;4992146;28;20057;-70
2021/05/24 04:59:30;;;;;;;4.53;0.98;;;;;;;;;;4988863;28;20042;-70
2021/05/24 05:01:57;;;;;;;2.78;0.70;;;;;;;;;;4991361;28;20049;-70
2021/05/24 05:04:24;;;;;;;3.85;0.50;;;;;;;;;;4992123;28;20034;-70
2021/05/24 05:06:51;;;;;;;2.83;0.30;;;;;;;;;;4998534;28;20507;-69
2021/05/24 05:09:18;;;;;;;2.97;0.50;;;;;;;;;;4989415;28;20030;-69
2021/05/24 05:11:45;;;;;;;4.88;0.52;;;;;;;;;;4991093;28;20037;-69
2021/05/24 05:14:13;;;;;;;2.35;0.30;;;;;;;;;;4991695;28;20025;-69
2021/05/24 05:16:40;;;;;;;3.45;0.93;;;;;;;;;;4988331;28;20113;-69
2021/05/24 05:19:07;;;;;;;4.05;0.52;;;;;;;;;;4990006;28;20026;-70
2021/05/24 05:21:35;;;;;;;2.15;0.40;;;;;;;;;;4999366;28;20034;-69
2021/05/24 05:24:02;;;;;;;2.53;0.75;;;;;;;;;;4990648;28;20427;-70
2021/05/24 05:26:30;;;;;;;2.42;0.70;;;;;;;;;;4994429;28;20015;-69
2021/05/24 05:28:57;;;;;;;3.40;0.60;;;;;;;;;;4991962;28;20066;-69
2021/05/24 05:31:25;;;;;;;2.65;0.50;;;;;;;;;;4990422;28;20034;-69
2021/05/24 05:33:52;;;;;;;3.95;0.90;;;;;;;;;;4992836;28;20035;-69
2021/05/24 05:36:19;;;;;;;7.30;1.95;;;;;;;;;;4994987;28;20054;-70
2021/05/24 05:38:46;;;;;;;3.30;0.40;;;;;;;;;;4997031;28;20038;-70
2021/05/24 05:41:13;;;;;;;2.05;0.40;;;;;;;;;;4994521;28;20404;-70
2021/05/24 05:43:41;;;;;;;7.47;2.97;;;;;;;;;;5010113;28;20036;-69
2021/05/24 05:46:09;;;;;;;11.43;6.88;;;;;;;;;;4994914;28;20034;-69
2021/05/24 05:48:36;;;;;;;5.63;3.15;;;;;;;;;;5001728;28;20126;-69
2021/05/24 05:51:04;;;;;;;6.72;2.15;;;;;;;;;;4993901;28;20133;-69
2021/05/24 05:53:32;;;;;;;5.57;3.63;;;;;;;;;;4991160;28;20027;-70
2021/05/24 05:56:00;;;;;;;4.85;1.90;;;;;;;;;;4994288;28;20022;-70
2021/05/24 05:58:27;;;;;;;3.85;0.77;;;;;;;;;;5007549;28;20014;-70
2021/05/24 06:00:54;;;;;;;2.90;0.80;;;;;;;;;;5002615;28;20413;-70
2021/05/24 06:03:21;;;;;;;3.28;0.88;;;;;;;;;;5006612;28;20057;-70
2021/05/24 06:05:48;;;;;;;4.32;0.52;;;;;;;;;;5000176;28;20431;-71
2021/05/24 06:08:15;;;;;;;2.83;1.15;;;;;;;;;;4999930;28;20022;-70
2021/05/24 06:10:42;;;;;;;3.13;0.57;;;;;;;;;;4987162;28;20046;-70
2021/05/24 06:13:10;;;;;;;4.68;0.80;;;;;;;;;;4992594;28;20023;-71
2021/05/24 06:15:37;;;;;;;4.38;0.52;;;;;;;;;;4993393;28;20555;-70
2021/05/24 06:18:04;;;;;;;3.13;0.88;;;;;;;;;;4990471;28;20027;-71
2021/05/24 06:20:31;;;;;;;6.28;0.30;;;;;;;;;;4991422;28;20491;-71
2021/05/24 06:22:58;;;;;;;1.30;0.20;;;;;;;;;;4991998;28;20026;-70
2021/05/24 06:25:26;;;;;;;1.95;0.47;;;;;;;;;;4994221;28;20033;-71
2021/05/24 06:27:53;;;;;;;4.22;0.43;;;;;;;;;;4973616;28;20034;-70
2021/05/24 06:30:20;;;;;;;1.08;0.47;;;;;;;;;;4991523;28;20046;-71
2021/05/24 06:32:47;;;;;;;2.25;0.40;;;;;;;;;;4992875;28;20057;-70
2021/05/24 06:35:14;;;;;;;1.90;0.50;;;;;;;;;;4993938;28;20038;-71
2021/05/24 06:37:41;;;;;;;2.72;0.70;;;;;;;;;;4991491;28;20076;-70
2021/05/24 06:40:09;;;;;;;2.03;0.68;;;;;;;;;;4991322;28;20106;-71
2021/05/24 06:42:36;;;;;;;1.85;0.75;;;;;;;;;;4988060;28;20033;-71
2021/05/24 06:45:04;;;;;;;3.17;0.90;;;;;;;;;;4990335;28;20046;-71
2021/05/24 06:47:32;;;;;;;2.22;0.38;;;;;;;;;;4988968;28;20022;-70
2021/05/24 06:49:59;;;;;;;1.70;0.30;;;;;;;;;;4987998;28;20029;-71
2021/05/24 06:52:26;;;;;;;2.08;0.30;;;;;;;;;;4986753;28;20029;-70
2021/05/24 06:54:53;;;;;;;0.90;0.25;;;;;;;;;;4985126;28;20065;-71
2021/05/24 06:57:20;;;;;;;1.63;0.28;;;;;;;;;;4989941;28;20045;-70
2021/05/24 06:59:47;;;;;;;4.47;0.40;;;;;;;;;;4987159;28;20030;-70
2021/05/24 07:02:16;;;;;;;1.35;0.30;;;;;;;;;;4988667;28;20026;-70
2021/05/24 07:04:44;;;;;;;0.60;0.40;;;;;;;;;;4993502;28;20028;-71
2021/05/24 07:07:11;;;;;;;2.45;0.35;;;;;;;;;;4989514;28;20069;-70
2021/05/24 07:09:38;;;;;;;1.85;0.40;;;;;;;;;;4993295;28;20479;-71
2021/05/24 07:12:07;;;;;;;3.97;0.30;;;;;;;;;;4988396;28;20042;-71
2021/05/24 07:14:34;;;;;;;3.65;0.60;;;;;;;;;;4985468;28;20118;-70
2021/05/24 07:17:01;;;;;;;1.13;0.40;;;;;;;;;;4988226;28;20024;-71
2021/05/24 07:19:28;;;;;;;3.40;0.57;;;;;;;;;;4985444;28;20026;-71
2021/05/24 07:21:56;;;;;;;3.47;0.60;;;;;;;;;;4989203;28;20114;-71
2021/05/24 07:24:23;;;;;;;6.35;0.57;;;;;;;;;;4989900;28;20077;-71
2021/05/24 07:26:53;;;;;;;3.42;0.70;;;;;;;;;;4988297;28;20034;-72
2021/05/24 07:29:21;;;;;;;3.90;1.20;;;;;;;;;;4991356;28;20019;-71
2021/05/24 07:31:48;;;;;;;1.67;0.60;;;;;;;;;;4987902;28;20062;-70
2021/05/24 07:34:15;;;;;;;2.20;0.60;;;;;;;;;;4988423;28;20026;-71
2021/05/24 07:36:42;;;;;;;3.33;0.63;;;;;;;;;;4990410;28;20062;-71
2021/05/24 07:39:09;;;;;;;2.13;0.80;;;;;;;;;;4989250;28;20129;-71
2021/05/24 07:41:39;;;;;;;2.88;0.60;;;;;;;;;;4990504;28;20037;-71
2021/05/24 07:44:07;;;;;;;1.88;0.50;;;;;;;;;;4986313;28;20106;-70
2021/05/24 07:46:34;;;;;;;3.60;0.98;;;;;;;;;;4987234;28;20019;-71
2021/05/24 07:49:01;;;;;;;2.35;0.52;;;;;;;;;;4990863;28;20029;-70
2021/05/24 07:51:28;;;;;;;3.80;0.73;;;;;;;;;;4987923;28;20398;-71
2021/05/24 07:53:56;;;;;;;3.75;0.90;;;;;;;;;;4990033;28;20574;-71
2021/05/24 07:56:23;;;;;;;4.50;0.52;;;;;;;;;;4989905;28;20463;-71
2021/05/24 07:58:50;;;;;;;7.93;0.70;;;;;;;;;;4990031;28;20038;-71
2021/05/24 08:01:17;;;;;;;2.50;0.40;;;;;;;;;;4991386;28;20022;-71
2021/05/24 08:03:44;;;;;;;3.60;0.43;;;;;;;;;;4989356;28;20486;-71
2021/05/24 08:06:11;;;;;;;2.05;0.70;;;;;;;;;;4990919;28;20494;-71
2021/05/24 08:08:38;;;;;;;3.30;0.43;;;;;;;;;;4989371;28;20037;-71
2021/05/24 08:11:06;;;;;;;2.28;0.70;;;;;;;;;;4990692;28;20041;-71
2021/05/24 08:13:33;;;;;;;3.38;0.52;;;;;;;;;;4989016;28;20356;-71
2021/05/24 08:16:00;;;;;;;3.08;0.50;;;;;;;;;;4987982;28;20517;-71
2021/05/24 08:18:27;;;;;;;2.50;0.47;;;;;;;;;;4987525;28;20065;-71
2021/05/24 08:20:55;;;;;;;4.28;0.40;;;;;;;;;;4987687;28;20446;-71
2021/05/24 08:23:22;;;;;;;3.05;0.82;;;;;;;;;;4970407;28;20108;-72
2021/05/24 08:25:49;;;;;;;7.60;1.10;;;;;;;;;;4991309;28;20026;-72
2021/05/24 08:28:17;;;;;;;7.20;1.00;;;;;;;;;;4991354;28;20050;-71
2021/05/24 08:30:45;;;;;;;4.18;0.98;;;;;;;;;;4991293;28;20105;-71
2021/05/24 08:33:12;;;;;;;3.13;0.82;;;;;;;;;;4989725;28;20026;-71
2021/05/24 08:35:39;;;;;;;5.20;1.85;;;;;;;;;;4989663;28;20125;-71
2021/05/24 08:38:06;;;;;;;6.65;1.42;;;;;;;;;;4991219;28;20023;-71
2021/05/24 08:40:33;;;;;;;4.82;1.60;;;;;;;;;;4992481;28;20402;-71
2021/05/24 08:43:01;;;;;;;3.33;1.10;;;;;;;;;;4987534;28;20415;-71
2021/05/24 08:45:31;;;;;;;5.53;1.38;;;;;;;;;;4984168;28;20390;-71
2021/05/24 08:47:58;;;;;;;4.53;1.55;;;;;;;;;;4987250;28;20034;-71
2021/05/24 08:50:25;;;;;;;5.60;1.10;;;;;;;;;;4986339;28;20018;-71
2021/05/24 08:52:52;;;;;;;5.93;1.55;;;;;;;;;;4988662;28;20788;-71
2021/05/24 08:55:19;;;;;;;5.28;1.52;;;;;;;;;;4990034;28;20053;-71
2021/05/24 08:57:47;;;;;;;5.20;1.23;;;;;;;;;;4987348;28;20379;-71
2021/05/24 09:00:15;;;;;;;5.32;1.67;;;;;;;;;;4984512;28;20019;-71
2021/05/24 09:02:51;;;;;;;13.40;2.40;;;;;;;;;;4990629;28;20025;-71
2021/05/24 09:05:19;;;;;;;7.30;1.70;;;;;;;;;;4994518;28;20034;-71
2021/05/24 09:07:53;;;;;;;6.15;1.90;;;;;;;;;;4989785;28;20493;-71
2021/05/24 09:10:22;;;;;;;7.55;1.77;;;;;;;;;;4987098;28;20505;-71
2021/05/24 09:12:49;;;;;;;7.53;1.98;;;;;;;;;;4993861;28;20041;-70
2021/05/24 09:15:17;;;;;;;6.95;2.10;;;;;;;;;;4994670;28;20038;-70
2021/05/24 09:17:49;;;;;;;8.93;2.47;;;;;;;;;;4994109;28;20033;-70
2021/05/24 09:20:25;;;;;;;5.53;2.33;;;;;;;;;;4994410;28;20030;-71
2021/05/24 09:23:05;;;;;;;6.10;2.95;;;;;;;;;;4989919;28;20029;-71
2021/05/24 09:25:52;;;;;;;10.20;3.13;;;;;;;;;;4989863;28;20483;-71
2021/05/24 09:28:35;;;;;;;5.20;2.83;;;;;;;;;;4979673;28;20097;-71
2021/05/24 09:31:02;;;;;;;7.85;2.70;;;;;;;;;;4990178;28;20571;-70
2021/05/24 09:33:29;;;;;;;6.18;2.63;;;;;;;;;;4989845;28;20369;-71
2021/05/24 09:35:56;;;;;;;9.70;2.63;;;;;;;;;;4990583;28;20050;-70
2021/05/24 09:38:24;;;;;;;6.43;2.53;;;;;;;;;;4989609;28;20022;-70
2021/05/24 09:40:56;;;;;;;5.53;2.35;;;;;;;;;;4989764;28;20146;-70
2021/05/24 09:43:34;;;;;;;8.52;1.88;;;;;;;;;;4992713;28;20026;-70
2021/05/24 09:46:08;;;;;;;3.30;0.93;;;;;;;;;;4989407;28;20031;-70
2021/05/24 09:48:35;;;;;;;;;;;;;;;;;;4993571;28;20023;-70
2021/05/24 09:51:06;;;;;;;3.50;1.65;;;;;;;;;;4994164;28;19976;-70
2021/05/24 09:53:33;;;;;;;7.10;2.13;;;;;;;;;;4990742;28;20022;-70
2021/05/24 09:56:09;;;;;;;7.32;2.10;;;;;;;;;;4993038;28;20030;-69
2021/05/24 09:58:36;;;;;;;5.15;1.73;;;;;;;;;;4992863;28;20026;-70
2021/05/24 10:01:17;;;;;;;6.25;2.15;;;;;;;;;;4993536;28;20027;-70
2021/05/24 10:03:48;;;;;;;4.60;1.60;;;;;;;;;;4993121;28;20068;-69
2021/05/24 10:06:15;;;;;;;6.97;1.95;;;;;;;;;;4993921;28;20080;-70
2021/05/24 10:08:42;;;;;;;4.85;1.65;;;;;;;;;;4993325;28;20034;-69
2021/05/24 10:11:10;;;;;;;7.13;2.25;;;;;;;;;;4991706;28;20030;-70
2021/05/24 10:13:38;;;;;;;6.63;2.85;;;;;;;;;;4992752;28;20046;-70
2021/05/24 10:16:10;;;;;;;7.90;2.33;;;;;;;;;;4992772;28;20092;-69
2021/05/24 10:18:38;;;;;;;6.03;1.67;;;;;;;;;;4991785;28;20011;-70
2021/05/24 10:21:05;;;;;;;6.50;1.80;;;;;;;;;;4993267;28;20022;-70
2021/05/24 10:23:32;;;;;;;6.90;2.20;;;;;;;;;;4992285;28;20026;-70
2021/05/24 10:26:01;;;;;;;6.53;1.92;;;;;;;;;;4993679;28;20117;-70
2021/05/24 10:28:28;;;;;;;4.10;2.00;;;;;;;;;;4992330;28;20038;-70
2021/05/24 10:30:57;;;;;;;6.57;2.53;;;;;;;;;;4993694;28;20034;-69
2021/05/24 10:33:27;;;;;;;5.28;2.65;;;;;;;;;;4991953;28;20038;-70
2021/05/24 10:35:55;;;;;;;6.82;2.83;;;;;;;;;;4983321;28;20047;-69
2021/05/24 10:38:28;;;;;;;4.88;2.60;;;;;;;;;;4992088;28;20030;-69
2021/05/24 10:41:10;;;;;;;6.70;2.65;;;;;;;;;;4987878;28;20072;-69
2021/05/24 10:43:43;;;;;;;8.35;2.60;;;;;;;;;;4990608;28;20022;-69
2021/05/24 10:46:29;;;;;;;8.47;2.57;;;;;;;;;;4992362;28;20014;-69
2021/05/24 10:49:19;;;;;;;6.60;1.77;;;;;;;;;;4992634;28;20042;-69
2021/05/24 10:51:46;;;;;;;8.98;2.50;;;;;;;;;;4984168;28;20067;-69
2021/05/24 10:54:14;;;;;;;7.50;2.65;;;;;;;;;;4991380;28;20034;-69
2021/05/24 10:56:44;;;;;;;8.98;3.13;;;;;;;;;;4991425;28;20498;-70
2021/05/24 10:59:34;;;;;;;8.38;2.33;;;;;;;;;;4992610;28;20029;-69
2021/05/24 11:02:02;;;;;;;9.95;3.30;;;;;;;;;;4983286;28;20428;-69
2021/05/24 11:04:47;;;;;;;8.38;3.50;;;;;;;;;;4993578;28;20031;-70
2021/05/24 11:07:31;;;;;;;5.60;3.10;;;;;;;;;;4991654;28;20026;-70
2021/05/24 11:10:21;;;;;;;7.22;3.50;;;;;;;;;;4993018;28;20494;-70
2021/05/24 11:12:49;;;;;;;7.38;3.45;;;;;;;;;;4981583;28;20047;-70
2021/05/24 11:15:24;;;;;;;9.93;3.30;;;;;;;;;;4992848;28;20026;-70
2021/05/24 11:18:03;;;;;;;7.90;2.88;;;;;;;;;;4991335;28;20361;-70
2021/05/24 11:20:31;;;;;;;9.07;2.95;;;;;;;;;;4993036;28;20029;-70
2021/05/24 11:25:52;;;;;;;11.48;3.58;;;;;;;;;;4989935;28;20041;-70
2021/05/24 11:28:20;;;;;;;7.93;2.92;;;;;;;;;;4990400;28;20023;-69
2021/05/24 11:31:06;;;;;;;9.05;2.33;;;;;;;;;;4989355;28;20054;-70
2021/05/24 11:33:37;;;;;;;4.57;2.53;;;;;;;;;;4991455;28;20077;-69
2021/05/24 11:36:05;;;;;;;8.25;3.10;;;;;;;;;;4982019;28;20128;-69
2021/05/24 11:38:33;;;;;;;8.75;2.70;;;;;;;;;;5005782;28;20411;-69
2021/05/24 11:41:18;;;;;;;9.38;2.08;;;;;;;;;;5000091;28;20073;-70
2021/05/24 11:43:54;;;;;;;7.75;1.80;;;;;;;;;;4990518;28;20026;-69
2021/05/24 11:46:21;;;;;;;7.25;1.70;;;;;;;;;;4989565;28;20033;-69
2021/05/24 11:48:50;;;;;;;6.10;1.65;;;;;;;;;;4990298;28;20506;-68
2021/05/24 11:51:19;;;;;;;6.55;1.90;;;;;;;;;;4993607;28;20124;-69
2021/05/24 11:54:01;;;;;;;4.53;1.75;;;;;;;;;;4990991;28;20360;-68
2021/05/24 11:56:37;;;;;;;6.32;2.25;;;;;;;;;;4991204;28;20104;-68
2021/05/24 11:59:05;;;;;;;6.20;2.08;;;;;;;;;;4992147;28;20018;-68
2021/05/24 12:01:33;;;;;;;4.35;1.48;;;;;;;;;;4991956;28;20471;-68
2021/05/24 12:04:05;;;;;;;5.00;1.60;;;;;;;;;;4990811;28;20094;-68
2021/05/24 12:06:40;;;;;;;8.32;2.35;;;;;;;;;;4974045;28;20050;-68
2021/05/24 12:09:07;;;;;;;3.42;1.40;;;;;;;;;;4973271;28;20387;-68
2021/05/24 12:11:35;;;;;;;4.72;1.40;;;;;;;;;;4973373;28;20046;-68
2021/05/24 12:14:09;;;;;;;5.70;1.40;;;;;;;;;;4991389;28;20027;-68
2021/05/24 12:16:36;;;;;;;4.43;1.48;;;;;;;;;;4990997;28;20023;-69
2021/05/24 12:19:03;;;;;;;4.40;1.48;;;;;;;;;;4992243;28;20106;-68
2021/05/24 12:21:41;;;;;;;5.00;2.20;;;;;;;;;;4991774;28;20026;-68
2021/05/24 12:24:10;;;;;;;8.15;1.92;;;;;;;;;;4975464;28;20023;-68
2021/05/24 12:26:38;;;;;;;5.63;1.80;;;;;;;;;;4989432;28;20562;-69
2021/05/24 12:29:06;;;;;;;6.07;1.83;;;;;;;;;;4988336;28;20092;-70
2021/05/24 12:31:34;;;;;;;6.38;2.40;;;;;;;;;;4973189;28;20380;-69
2021/05/24 12:34:02;;;;;;;3.60;1.77;;;;;;;;;;4992082;28;20025;-69
2021/05/24 12:36:43;;;;;;;5.53;2.10;;;;;;;;;;4990103;28;20042;-69
2021/05/24 12:39:10;;;;;;;3.42;2.15;;;;;;;;;;4975464;28;20023;-69
2021/05/24 12:41:38;;;;;;;5.75;1.80;;;;;;;;;;4990644;28;20034;-69
2021/05/24 12:44:07;;;;;;;10.50;8.68;;;;;;;;;;4992502;28;20026;-69
2021/05/24 12:46:40;;;;;;;8.13;4.72;;;;;;;;;;4988874;28;20049;-69
2021/05/24 12:49:07;;;;;;;9.68;4.22;;;;;;;;;;4989371;28;20022;-68
2021/05/24 12:51:34;;;;;;;9.60;4.50;;;;;;;;;;4989089;28;20070;-70
2021/05/24 12:54:05;;;;;;;8.52;3.88;;;;;;;;;;4990983;28;20061;-69
2021/05/24 12:56:39;;;;;;;21.63;10.73;;;;;;;;;;4992137;28;20375;-69
2021/05/24 12:59:17;;;;;;;42.47;24.92;;;;;;;;;;4991622;28;20023;-69
2021/05/24 13:01:44;;;;;;;27.35;16.63;;;;;;;;;;4991595;28;20038;-69
2021/05/24 13:04:17;;;;;;;15.75;10.20;;;;;;;;;;4988877;28;20045;-70
2021/05/24 13:06:45;;;;;;;14.50;7.13;;;;;;;;;;4985253;28;20491;-70
2021/05/24 13:09:18;;;;;;;14.75;7.07;;;;;;;;;;4992336;28;20031;-70
2021/05/24 13:11:56;;;;;;;16.60;10.95;;;;;;;;;;4994121;28;20066;-71
2021/05/24 13:14:27;;;;;;;65.72;41.35;;;;;;;;;;4991999;28;20033;-70
2021/05/24 13:29:15;;;;;;;12.73;7.00;;;;;;;;;;4989506;28;20041;-70
2021/05/24 13:31:15;;;;;;;15.85;7.35;;;;;;;;;;4975270;28;20167;-70
2021/05/24 13:33:44;;;;;;;11.30;6.35;;;;;;;;;;4993547;28;20109;-70
2021/05/24 13:36:16;;;;;;;23.92;16.38;;;;;;;;;;4992984;28;20109;-70
2021/05/24 13:39:02;;;;;;;33.92;18.05;;;;;;;;;;4991509;28;20085;-70
2021/05/24 13:41:30;;;;;;;14.70;6.78;;;;;;;;;;4994395;28;20030;-70
2021/05/24 13:43:57;;;;;;;11.70;5.90;;;;;;;;;;4994832;28;20046;-70
2021/05/24 13:46:26;;;;;;;10.00;5.53;;;;;;;;;;4993288;28;20038;-70
2021/05/24 13:48:53;;;;;;;10.35;5.07;;;;;;;;;;4992769;28;20062;-70
2021/05/24 13:51:25;;;;;;;9.73;3.20;;;;;;;;;;4993442;28;20073;-70
2021/05/24 13:53:53;;;;;;;4.20;2.70;;;;;;;;;;4991525;28;20539;-70
2021/05/24 13:56:20;;;;;;;5.45;2.88;;;;;;;;;;4976381;28;20031;-70
2021/05/24 13:58:48;;;;;;;8.05;3.20;;;;;;;;;;4992652;28;20029;-70
2021/05/24 14:01:15;;;;;;;14.80;11.07;;;;;;;;;;4993103;28;20136;-70
2021/05/24 14:03:42;;;;;;;16.13;14.25;;;;;;;;;;4990782;28;20379;-70
2021/05/24 14:06:09;;;;;;;6.47;4.30;;;;;;;;;;4982657;28;20026;-70
2021/05/24 14:08:37;;;;;;;12.20;6.68;;;;;;;;;;4990759;28;20021;-70
2021/05/24 14:11:04;;;;;;;13.75;6.82;;;;;;;;;;4994548;28;20041;-70
2021/05/24 14:13:31;;;;;;;8.73;5.18;;;;;;;;;;4986401;28;20050;-70
2021/05/24 14:15:58;;;;;;;12.80;8.50;;;;;;;;;;4992083;28;20144;-71
2021/05/24 14:18:26;;;;;;;8.38;4.30;;;;;;;;;;4983453;28;20033;-70
2021/05/24 14:20:53;;;;;;;6.78;3.75;;;;;;;;;;4990708;28;20103;-70
2021/05/24 14:23:20;;;;;;;9.68;3.65;;;;;;;;;;4992400;28;20023;-70
2021/05/24 14:25:47;;;;;;;11.02;5.93;;;;;;;;;;4993987;28;20026;-70
2021/05/24 14:28:14;;;;;;;12.43;6.80;;;;;;;;;;4993344;28;20026;-70
2021/05/24 14:30:42;;;;;;;22.48;15.30;;;;;;;;;;4992299;28;20035;-70
2021/05/24 14:33:09;;;;;;;13.77;9.80;;;;;;;;;;4991874;28;20062;-70
2021/05/24 14:35:36;;;;;;;10.18;7.10;;;;;;;;;;4994155;28;20180;-70
2021/05/24 14:38:06;;;;;;;9.05;4.43;;;;;;;;;;4992060;28;20030;-70
2021/05/24 14:40:33;;;;;;;7.68;5.10;;;;;;;;;;4992473;28;20073;-70
2021/05/24 14:43:00;;;;;;;14.30;9.40;;;;;;;;;;4992655;28;20038;-70
2021/05/24 14:45:28;;;;;;;9.70;5.32;;;;;;;;;;4994020;28;20019;-70
2021/05/24 14:47:56;;;;;;;6.05;3.90;;;;;;;;;;4992331;28;20537;-70
2021/05/24 14:50:26;;;;;;;19.27;13.43;;;;;;;;;;4994013;28;20026;-70
2021/05/24 14:52:55;;;;;;;19.15;13.35;;;;;;;;;;4992761;28;20026;-70
2021/05/24 14:55:23;;;;;;;12.25;7.28;;;;;;;;;;4991238;28;20103;-70
2021/05/24 14:57:50;;;;;;;7.18;3.72;;;;;;;;;;4992054;28;20449;-70
2021/05/24 15:00:18;;;;;;;6.40;3.80;;;;;;;;;;4993220;28;20014;-71
2021/05/24 15:02:45;;;;;;;8.27;3.95;;;;;;;;;;4982857;28;20093;-71
2021/05/24 15:05:13;;;;;;;8.43;3.38;;;;;;;;;;4993557;28;20018;-71
2021/05/24 15:07:40;;;;;;;5.97;3.58;;;;;;;;;;4983667;28;20023;-70